Terminal Aerodrome Forecast
Issued by NWS Portland, OR

Home | Current Version | Previous Version | Text Only | Print | Product List | Glossary On
Versions: 1 2 3 4 5 6 7 8 9 10 11 12 13 14 15 16 17 18 19 20 21 22 23 24 25 26
534
FTUS46 KPQR 291135
TAFEUG
TAF
KEUG 291135Z 2912/3012 22004KT P6SM VCSH BKN035 OVC060
     FM291500 24006KT P6SM -SHRA BKN035 OVC050
     FM292300 33010KT P6SM BKN035 BKN050
      TEMPO 2923/3003 -SHRA
     FM300400 34006KT P6SM SCT035 BKN045=

USA.gov is the U.S. government's official web portal to all federal, state and local government web resources and services.